Time;durP1;ratioP1;P1;durP2;ratioP2;P2;SDS_P1;SDS_P2;PMS_P1;PMS_P2;Temp;Humidity;BMP_temperature;BMP_pressure;BME280_temperature;BME280_humidity;BME280_pressure;Samples;Min_cycle;Max_cycle;Signal;HPM_P1;HPM_P2
2021/05/15 00:01:56;;;;;;;6.93;2.90;;;;;;;;;;5092383;28;20382;-76
2021/05/15 00:04:23;;;;;;;3.10;2.80;;;;;;;;;;5091037;28;20308;-76
2021/05/15 00:06:50;;;;;;;6.10;2.73;;;;;;;;;;5092148;28;20226;-76
2021/05/15 00:09:17;;;;;;;5.50;3.00;;;;;;;;;;5091310;28;20312;-76
2021/05/15 00:11:44;;;;;;;9.10;2.90;;;;;;;;;;5092029;28;20252;-76
2021/05/15 00:14:11;;;;;;;7.00;3.03;;;;;;;;;;5092624;28;20230;-76
2021/05/15 00:16:38;;;;;;;6.03;2.80;;;;;;;;;;5091558;28;20610;-77
2021/05/15 00:19:04;;;;;;;5.70;2.80;;;;;;;;;;5091718;28;20244;-76
2021/05/15 00:21:31;;;;;;;5.43;2.40;;;;;;;;;;5090695;28;20226;-76
2021/05/15 00:23:59;;;;;;;8.20;2.60;;;;;;;;;;5072328;28;20249;-76
2021/05/15 00:26:26;;;;;;;3.87;2.00;;;;;;;;;;5079802;28;20273;-76
2021/05/15 00:28:53;;;;;;;4.67;2.17;;;;;;;;;;5092217;28;20281;-77
2021/05/15 00:31:20;;;;;;;4.07;2.40;;;;;;;;;;5092514;28;20398;-76
2021/05/15 00:33:46;;;;;;;3.40;2.10;;;;;;;;;;5091654;28;20204;-76
2021/05/15 00:36:13;;;;;;;3.73;2.30;;;;;;;;;;5091519;28;20225;-76
2021/05/15 00:38:40;;;;;;;2.97;2.00;;;;;;;;;;5091473;28;20237;-76
2021/05/15 00:41:08;;;;;;;3.87;2.30;;;;;;;;;;5091607;28;20289;-76
2021/05/15 00:43:34;;;;;;;3.80;2.30;;;;;;;;;;5091274;28;20231;-76
2021/05/15 00:46:01;;;;;;;6.03;2.10;;;;;;;;;;5091979;28;20277;-77
2021/05/15 00:48:28;;;;;;;5.43;2.20;;;;;;;;;;5091996;28;20228;-76
2021/05/15 00:50:55;;;;;;;5.40;2.10;;;;;;;;;;5091435;28;20313;-76
2021/05/15 00:53:23;;;;;;;3.60;2.00;;;;;;;;;;5091848;28;20206;-76
2021/05/15 00:55:50;;;;;;;5.00;2.10;;;;;;;;;;5091649;28;20289;-76
2021/05/15 00:58:19;;;;;;;3.40;2.00;;;;;;;;;;5091905;28;20226;-76
2021/05/15 01:00:46;;;;;;;4.13;2.00;;;;;;;;;;5090718;28;20273;-76
2021/05/15 01:03:13;;;;;;;5.07;1.90;;;;;;;;;;5091683;28;20654;-75
2021/05/15 01:05:41;;;;;;;4.97;2.20;;;;;;;;;;5090704;28;20240;-76
2021/05/15 01:08:10;;;;;;;2.97;1.90;;;;;;;;;;5091315;28;20237;-76
2021/05/15 01:10:37;;;;;;;5.23;2.00;;;;;;;;;;5091430;28;21038;-75
2021/05/15 01:13:03;;;;;;;3.03;1.80;;;;;;;;;;5091408;28;20235;-76
2021/05/15 01:15:31;;;;;;;5.63;1.90;;;;;;;;;;5091060;28;20204;-76
2021/05/15 01:17:58;;;;;;;4.53;1.97;;;9.40;99.90;;;;;;5090505;28;20294;-76
2021/05/15 01:20:27;;;;;;;2.47;1.57;;;9.50;99.90;;;;;;5091703;28;20876;-76
2021/05/15 01:22:55;;;;;;;1.40;1.30;;;9.40;99.90;;;;;;5091690;28;20209;-76
2021/05/15 01:25:22;;;;;;;3.00;1.23;;;;;;;;;;5091383;28;20211;-76
2021/05/15 01:27:49;;;;;;;2.07;1.30;;;9.40;99.90;;;;;;5090565;28;20240;-76
2021/05/15 01:30:17;;;;;;;2.37;1.40;;;9.50;99.90;;;;;;5090100;28;20263;-76
2021/05/15 01:32:44;;;;;;;2.70;1.60;;;9.40;99.90;;;;;;5075658;28;20565;-76
2021/05/15 01:35:12;;;;;;;1.67;1.27;;;;;;;;;;5079934;28;20202;-76
2021/05/15 01:37:39;;;;;;;2.90;1.50;;;;;;;;;;5091290;28;20294;-76
2021/05/15 01:40:09;;;;;;;3.13;1.30;;;;;;;;;;5091067;28;20249;-77
2021/05/15 01:42:36;;;;;;;3.00;1.27;;;;;;;;;;5091534;28;20334;-76
2021/05/15 01:45:05;;;;;;;2.00;1.17;;;;;;;;;;5090756;28;20298;-76
2021/05/15 01:47:35;;;;;;;1.77;1.17;;;9.40;99.90;;;;;;5091054;28;20336;-76
2021/05/15 01:50:02;;;;;;;1.50;1.20;;;9.40;99.90;;;;;;5091338;28;20252;-76
2021/05/15 01:52:29;;;;;;;2.17;1.20;;;;;;;;;;5094563;28;20296;-76
2021/05/15 01:54:56;;;;;;;1.00;0.90;;;;;;;;;;5095235;28;20206;-76
2021/05/15 01:57:24;;;;;;;1.60;1.10;;;;;;;;;;5094331;28;20209;-76
2021/05/15 01:59:52;;;;;;;3.03;1.30;;;;;;;;;;5095102;28;20197;-76
2021/05/15 02:02:19;;;;;;;2.17;1.20;;;;;;;;;;5094594;28;20338;-76
2021/05/15 02:04:47;;;;;;;1.23;1.00;;;;;;;;;;5095463;28;20348;-76
2021/05/15 02:07:14;;;;;;;1.70;1.10;;;;;;;;;;5095234;28;20205;-76
2021/05/15 02:09:42;;;;;;;2.13;1.10;;;;;;;;;;5093717;28;20684;-77
2021/05/15 02:12:10;;;;;;;1.37;1.10;;;;;;;;;;5094438;28;20202;-76
2021/05/15 02:14:39;;;;;;;2.87;1.23;;;;;;;;;;5094405;28;20722;-76
2021/05/15 02:17:07;;;;;;;1.57;0.97;;;;;;;;;;5094343;28;20415;-76
2021/05/15 02:19:34;;;;;;;1.77;1.00;;;;;;;;;;5095038;28;20293;-76
2021/05/15 02:22:02;;;;;;;2.40;1.20;;;;;;;;;;5095032;28;20210;-76
2021/05/15 02:24:30;;;;;;;1.30;0.90;;;;;;;;;;5094111;28;20237;-76
2021/05/15 02:26:58;;;;;;;2.30;1.50;;;;;;;;;;5093532;28;20226;-76
2021/05/15 02:29:25;;;;;;;1.80;1.10;;;;;;;;;;5093746;28;20225;-76
2021/05/15 02:31:54;;;;;;;1.90;1.17;;;;;;;;;;5093554;28;20221;-76
2021/05/15 02:34:22;;;;;;;1.40;1.20;;;;;;;;;;5092415;28;20678;-76
2021/05/15 02:36:50;;;;;;;1.73;1.17;;;;;;;;;;5094391;28;20225;-76
2021/05/15 02:39:17;;;;;;;2.60;0.90;;;;;;;;;;5093820;28;20198;-76
2021/05/15 02:41:45;;;;;;;1.20;0.80;;;;;;;;;;5094199;28;20335;-76
2021/05/15 02:44:13;;;;;;;2.13;0.93;;;;;;;;;;5093935;28;20293;-76
2021/05/15 02:46:41;;;;;;;1.33;0.90;;;;;;;;;;5094020;28;20275;-76
2021/05/15 02:49:09;;;;;;;2.70;1.07;;;;;;;;;;5094067;28;20275;-76
2021/05/15 02:51:37;;;;;;;3.40;1.13;;;;;;;;;;5086064;28;20325;-76
2021/05/15 02:54:05;;;;;;;2.50;1.10;;;;;;;;;;5093800;28;20675;-76
2021/05/15 02:56:33;;;;;;;2.30;1.20;;;;;;;;;;5093400;28;20218;-76
2021/05/15 02:59:01;;;;;;;1.47;0.90;;;;;;;;;;5094366;28;20198;-73
2021/05/15 03:01:29;;;;;;;2.47;1.23;;;;;;;;;;5093461;28;20226;-76
2021/05/15 03:03:57;;;;;;;1.70;1.20;;;;;;;;;;5094078;28;20312;-76
2021/05/15 03:06:26;;;;;;;3.10;1.20;;;;;;;;;;5093990;28;20228;-77
2021/05/15 03:08:54;;;;;;;4.13;1.40;;;;;;;;;;5093798;28;20717;-77
2021/05/15 03:11:21;;;;;;;2.40;1.57;;;;;;;;;;5093851;28;20234;-76
2021/05/15 03:13:49;;;;;;;2.83;1.40;;;;;;;;;;5093183;28;20667;-76
2021/05/15 03:16:18;;;;;;;2.47;1.37;;;;;;;;;;5093193;28;20206;-75
2021/05/15 03:18:46;;;;;;;2.20;1.27;;;;;;;;;;5092558;28;20240;-76
2021/05/15 03:21:18;;;;;;;4.40;1.40;;;;;;;;;;5094070;28;20198;-76
2021/05/15 03:23:47;;;;;;;2.10;1.40;;;;;;;;;;5093082;28;20229;-76
2021/05/15 03:26:15;;;;;;;3.43;1.50;;;;;;;;;;5092547;28;20749;-76
2021/05/15 03:28:43;;;;;;;4.27;1.60;;;;;;;;;;5092760;28;20700;-75
2021/05/15 03:31:12;;;;;;;4.73;1.63;;;;;;;;;;5093451;28;20328;-76
2021/05/15 03:33:41;;;;;;;5.07;1.90;;;;;;;;;;5093231;28;20294;-76
2021/05/15 03:36:09;;;;;;;4.73;1.90;;;;;;;;;;5093148;28;20306;-76
2021/05/15 03:38:37;;;;;;;6.77;2.03;;;;;;;;;;5093314;28;20364;-76
2021/05/15 03:41:05;;;;;;;7.47;2.63;;;;;;;;;;5092382;28;20295;-76
2021/05/15 03:43:33;;;;;;;8.90;2.80;;;;;;;;;;5092848;28;20289;-76
2021/05/15 03:46:01;;;;;;;9.83;2.67;;;;;;;;;;5092784;28;20704;-76
2021/05/15 03:48:29;;;;;;;8.07;2.93;;;;;;;;;;5092951;28;20281;-76
2021/05/15 03:50:57;;;;;;;10.17;3.43;;;;;;;;;;5092818;28;20255;-76
2021/05/15 03:53:25;;;;;;;9.60;2.93;;;;;;;;;;5092721;28;20242;-76
2021/05/15 03:55:52;;;;;;;6.90;2.80;;;;;;;;;;5092536;28;20200;-76
2021/05/15 03:58:21;;;;;;;7.77;2.23;;;;;;;;;;5092715;28;20245;-75
2021/05/15 04:00:49;;;;;;;3.53;2.20;;;;;;;;;;5092437;28;20204;-76
2021/05/15 04:03:17;;;;;;;10.50;2.47;;;;;;;;;;5092902;28;20285;-76
2021/05/15 04:05:44;;;;;;;7.10;2.47;;;;;;;;;;5092242;28;20199;-76
2021/05/15 04:08:12;;;;;;;7.83;2.70;;;;;;;;;;5092286;28;20243;-76
2021/05/15 04:10:39;;;;;;;7.97;2.57;;;;;;;;;;5091997;28;20208;-76
2021/05/15 04:13:14;;;;;;;10.80;2.67;;;;;;;;;;5092069;28;20662;-75
2021/05/15 04:15:48;;;;;;;9.93;2.50;;;;;;;;;;5092526;28;20550;-75
2021/05/15 04:18:16;;;;;;;7.33;2.70;;;;;;;;;;5092040;28;20679;-77
2021/05/15 04:20:44;;;;;;;10.37;2.83;;;;;;;;;;5092370;28;20239;-76
2021/05/15 04:23:12;;;;;;;9.70;2.90;;;;;;;;;;5092218;28;20233;-75
2021/05/15 04:25:40;;;;;;;11.67;3.23;;;;;;;;;;5091489;28;20336;-74
2021/05/15 04:28:09;;;;;;;8.73;2.80;;;;;;;;;;5091906;28;20199;-76
2021/05/15 04:30:36;;;;;;;10.80;3.00;;;;;;;;;;5092297;28;20224;-76
2021/05/15 04:33:05;;;;;;;9.60;3.23;;;;;;;;;;5092043;28;20236;-74
2021/05/15 04:35:32;;;;;;;10.23;3.00;;;;;;;;;;5091323;28;20334;-74
2021/05/15 04:38:00;;;;;;;13.57;3.20;;;;;;;;;;5092390;28;20259;-74
2021/05/15 04:40:27;;;;;;;12.83;3.57;;;;;;;;;;5091488;28;20340;-77
2021/05/15 04:42:54;;;;;;;12.67;3.53;;;;;;;;;;5091807;28;20627;-74
2021/05/15 04:45:21;;;;;;;14.93;3.70;;;;;;;;;;5091657;28;20222;-76
2021/05/15 04:47:48;;;;;;;16.47;3.83;;;;;;;;;;5091950;28;20259;-76
2021/05/15 04:50:16;;;;;;;12.90;3.57;;;;;;;;;;5091576;28;20210;-75
2021/05/15 04:52:43;;;;;;;18.03;4.10;;;;;;;;;;5091424;28;20235;-77
2021/05/15 04:55:10;;;;;;;13.90;3.70;;;;;;;;;;5092092;28;20204;-76
2021/05/15 04:57:37;;;;;;;18.23;3.83;;;;;;;;;;5091833;28;20500;-76
2021/05/15 05:00:05;;;;;;;20.13;4.90;;;;;;;;;;5091066;28;20243;-76
2021/05/15 05:02:32;;;;;;;19.27;4.30;;;;;;;;;;5091362;28;20236;-75
2021/05/15 05:04:59;;;;;;;18.57;4.53;;;;;;;;;;5090471;28;20289;-76
2021/05/15 05:07:27;;;;;;;18.03;4.17;;;;;;;;;;5091421;28;20285;-76
2021/05/15 05:09:54;;;;;;;20.80;4.73;;;;;;;;;;5091108;28;20233;-76
2021/05/15 05:12:21;;;;;;;18.40;4.47;;;;;;;;;;5091362;28;20257;-76
2021/05/15 05:14:49;;;;;;;23.50;5.17;;;;;;;;;;5091546;28;20233;-76
2021/05/15 05:17:16;;;;;;;21.07;4.67;;;;;;;;;;5091206;28;20286;-75
2021/05/15 05:19:43;;;;;;;16.87;4.37;;;;;;;;;;5090930;28;20221;-76
2021/05/15 05:22:11;;;;;;;20.20;5.27;;;;;;;;;;5090865;28;20274;-76
2021/05/15 05:24:40;;;;;;;23.93;5.33;;;;;;;;;;5091242;28;20220;-75
2021/05/15 05:27:09;;;;;;;23.43;4.93;;;;;;;;;;5094865;28;20236;-76
2021/05/15 05:29:37;;;;;;;25.73;5.27;;;;;;;;;;5095741;28;20326;-76
2021/05/15 05:32:04;;;;;;;27.83;6.03;;;;;;;;;;5095354;28;20224;-76
2021/05/15 05:34:32;;;;;;;32.13;5.87;;;;;;;;;;5087623;28;20231;-76
2021/05/15 05:37:00;;;;;;;27.13;5.70;;;;;;;;;;5075232;28;20293;-76
2021/05/15 05:39:28;;;;;;;27.77;5.13;;;;;;;;;;5086867;28;20294;-76
2021/05/15 05:41:56;;;;;;;33.53;6.13;;;;;;;;;;5095187;28;20200;-76
2021/05/15 05:44:23;;;;;;;29.87;5.87;;;;;;;;;;5095411;28;20231;-76
2021/05/15 05:46:50;;;;;;;30.17;6.10;;;11.00;99.90;;;;;;5095483;28;20201;-76
2021/05/15 05:49:17;;;;;;;28.77;6.27;;;;;;;;;;5095678;28;20205;-76
2021/05/15 05:51:44;;;;;;;25.93;5.17;;;;;;;;;;5094995;28;20225;-76
2021/05/15 05:54:11;;;;;;;30.73;6.10;;;;;;;;;;5095301;28;20581;-75
2021/05/15 05:56:38;;;;;;;34.73;6.93;;;;;;;;;;5095414;28;20204;-76
2021/05/15 05:59:06;;;;;;;34.03;6.30;;;;;;;;;;5094958;28;20562;-76
2021/05/15 06:01:34;;;;;;;30.80;6.53;;;;;;;;;;5094739;28;20538;-76
2021/05/15 06:04:01;;;;;;;29.93;6.37;;;;;;;;;;5094669;28;20203;-76
2021/05/15 06:06:29;;;;;;;32.20;6.60;;;;;;;;;;5094769;28;20242;-76
2021/05/15 06:08:58;;;;;;;24.87;6.60;;;;;;;;;;5094421;28;20315;-76
2021/05/15 06:11:26;;;;;;;32.80;5.87;;;;;;;;;;5095020;28;20199;-75
2021/05/15 06:13:53;;;;;;;30.97;6.90;;;;;;;;;;5093275;28;20551;-76
2021/05/15 06:16:22;;;;;;;33.20;6.40;;;;;;;;;;5094489;28;20311;-75
2021/05/15 06:18:50;;;;;;;28.60;6.40;;;;;;;;;;5094437;28;20254;-76
2021/05/15 06:21:17;;;;;;;28.50;6.07;;;;;;;;;;5094575;28;20205;-76
2021/05/15 06:23:45;;;;;;;37.47;6.57;;;;;;;;;;5094649;28;20658;-76
2021/05/15 06:26:13;;;;;;;31.63;6.80;;;;;;;;;;5094321;28;20226;-76
2021/05/15 06:28:41;;;;;;;33.73;6.33;;;;;;;;;;5094707;28;20210;-76
2021/05/15 06:31:08;;;;;;;33.00;5.97;;;;;;;;;;5093952;28;20207;-76
2021/05/15 06:33:37;;;;;;;29.80;6.13;;;;;;;;;;5094657;28;20241;-76
2021/05/15 06:36:05;;;;;;;36.63;7.03;;;;;;;;;;5088706;28;20209;-76
2021/05/15 06:38:33;;;;;;;37.30;7.10;;;;;;;;;;5093910;28;20210;-76
2021/05/15 06:41:01;;;;;;;32.77;7.43;;;;;;;;;;5094328;28;20210;-76
2021/05/15 06:43:29;;;;;;;31.73;6.23;;;13.70;99.90;;;;;;5094049;28;20205;-76
2021/05/15 06:45:57;;;;;;;31.97;6.73;;;;;;;;;;5094151;28;20278;-76
2021/05/15 06:48:25;;;;;;;29.77;7.57;;;;;;;;;;5094114;28;20537;-76
2021/05/15 06:50:54;;;;;;;23.40;5.70;;;;;;;;;;5094060;28;20581;-76
2021/05/15 06:53:22;;;;;;;23.63;6.20;;;;;;;;;;5093484;28;20278;-75
2021/05/15 06:55:49;;;;;;;32.83;6.17;;;;;;;;;;5093703;28;20681;-76
2021/05/15 06:58:17;;;;;;;30.30;5.80;;;;;;;;;;5093578;28;20688;-76
2021/05/15 07:00:45;;;;;;;26.87;5.30;;;;;;;;;;5093465;28;20690;-76
2021/05/15 07:03:12;;;;;;;40.13;7.13;;;;;;;;;;5093318;28;20904;-75
2021/05/15 07:05:40;;;;;;;32.53;6.33;;;;;;;;;;5093778;28;20285;-76
2021/05/15 07:08:10;;;;;;;32.57;6.47;;;;;;;;;;5093555;28;20265;-76
2021/05/15 07:10:37;;;;;;;27.70;6.13;;;;;;;;;;5093756;28;20210;-76
2021/05/15 07:13:05;;;;;;;32.30;5.63;;;;;;;;;;5093705;28;20268;-75
2021/05/15 07:15:33;;;;;;;28.27;6.33;;;;;;;;;;5089901;28;20611;-75
2021/05/15 07:18:03;;;;;;;26.87;5.93;;;;;;;;;;5091845;28;20281;-76
2021/05/15 07:20:31;;;;;;;26.77;5.57;;;;;;;;;;5086622;28;20215;-74
2021/05/15 07:23:00;;;;;;;28.37;5.53;;;;;;;;;;5089016;28;20225;-73
2021/05/15 07:25:29;;;;;;;25.50;5.60;;;;;;;;;;5092095;28;20282;-73
2021/05/15 07:27:57;;;;;;;30.00;5.70;;;;;;;;;;5092611;28;20595;-75
2021/05/15 07:30:26;;;;;;;22.97;6.00;;;;;;;;;;5087988;28;20801;-74
2021/05/15 07:32:57;;;;;;;23.60;5.50;;;;;;;;;;5081696;28;20334;-74
2021/05/15 07:35:25;;;;;;;23.47;4.83;;;;;;;;;;5092522;28;20705;-74
2021/05/15 07:37:53;;;;;;;23.73;5.40;;;;;;;;;;5085305;28;20641;-75
2021/05/15 07:40:22;;;;;;;19.87;4.67;;;;;;;;;;5091642;28;20289;-75
2021/05/15 07:42:51;;;;;;;25.20;5.40;;;;;;;;;;5088735;28;20285;-74
2021/05/15 07:45:20;;;;;;;28.77;5.77;;;;;;;;;;5089016;28;20229;-74
2021/05/15 07:47:48;;;;;;;27.10;4.80;;;;;;;;;;5086227;28;20745;-74
2021/05/15 07:50:17;;;;;;;22.37;5.50;;;;;;;;;;5088416;28;20282;-74
2021/05/15 07:52:45;;;;;;;26.70;5.07;;;;;;;;;;5088683;28;20238;-74
2021/05/15 07:55:14;;;;;;;20.67;4.83;;;;;;;;;;5089166;28;20847;-75
2021/05/15 07:57:42;;;;;;;23.60;5.03;;;;;;;;;;5089636;28;20289;-76
2021/05/15 08:00:14;;;;;;;27.13;5.43;;;;;;;;;;5086743;28;20231;-75
2021/05/15 08:02:42;;;;;;;24.00;5.20;;;;;;;;;;5090722;28;20195;-75
2021/05/15 08:05:11;;;;;;;24.83;5.83;;;;;;;;;;5091998;28;20222;-75
2021/05/15 08:07:40;;;;;;;19.77;5.50;;;;;;;;;;5091520;28;20226;-74
2021/05/15 08:10:09;;;;;;;24.53;5.57;;;;;;;;;;5091675;28;20202;-74
2021/05/15 08:12:38;;;;;;;22.27;5.20;;;;;;;;;;5091951;28;20864;-74
2021/05/15 08:15:08;;;;;;;25.23;5.50;;;;;;;;;;5091122;28;20210;-75
2021/05/15 08:17:37;;;;;;;22.87;5.37;;;;;;;;;;5090580;28;20610;-74
2021/05/15 08:20:06;;;;;;;23.07;5.17;;;;;;;;;;5089885;28;20293;-75
2021/05/15 08:22:35;;;;;;;21.83;4.77;;;;;;;;;;5091070;28;20226;-75
2021/05/15 08:25:03;;;;;;;20.87;4.67;;;;;;;;;;5090744;28;20286;-75
2021/05/15 08:27:34;;;;;;;24.93;4.93;;;;;;;;;;5091685;28;20259;-75
2021/05/15 08:30:02;;;;;;;23.33;5.03;;;;;;;;;;5090040;28;20282;-74
2021/05/15 08:32:31;;;;;;;23.60;5.50;;;;;;;;;;5091051;28;20225;-73
2021/05/15 08:35:00;;;;;;;21.93;4.77;;;;;;;;;;5089786;28;20635;-73
2021/05/15 08:37:29;;;;;;;22.03;5.00;;;;;;;;;;5090239;28;20216;-74
2021/05/15 08:39:57;;;;;;;25.67;5.23;;;;;;;;;;5090367;28;20248;-73
2021/05/15 08:42:27;;;;;;;20.10;4.50;;;;;;;;;;5090337;28;20194;-75
2021/05/15 08:44:56;;;;;;;20.73;4.83;;;;;;;;;;5090029;28;20701;-73
2021/05/15 08:47:25;;;;;;;22.80;4.90;;;;;;;;;;5088839;28;20226;-76
2021/05/15 08:49:54;;;;;;;23.60;4.93;;;;;;;;;;5090532;28;20666;-73
2021/05/15 08:52:24;;;;;;;20.87;5.40;;;;;;;;;;5089757;28;20279;-76
2021/05/15 08:54:51;;;;;;;21.33;4.70;;;;;;;;;;5087771;28;20261;-75
2021/05/15 08:57:19;;;;;;;23.87;5.20;;;;;;;;;;5090196;28;20524;-75
2021/05/15 08:59:49;;;;;;;21.43;4.70;;;;;;;;;;5090139;28;20203;-76
2021/05/15 09:02:16;;;;;;;19.77;4.35;;;;;;;;;;5090058;28;20277;-75
2021/05/15 09:04:42;;;;;;;21.27;4.07;;;;;;;;;;5090957;28;20191;-76
2021/05/15 09:07:11;;;;;;;21.57;4.60;;;;;;;;;;5088614;28;20221;-76
2021/05/15 09:09:38;;;;;;;21.60;4.07;;;;;;;;;;5090701;28;20230;-75
2021/05/15 09:12:06;;;;;;;22.83;6.43;;;;;;;;;;5089624;28;20291;-75
2021/05/15 09:14:32;;;;;;;23.03;4.50;;;;;;;;;;5087377;28;20297;-75
2021/05/15 09:17:00;;;;;;;20.97;4.20;;;;;;;;;;5090067;28;20229;-75
2021/05/15 09:19:28;;;;;;;24.33;5.03;;;;;;;;;;5090080;28;20201;-75
2021/05/15 09:21:57;;;;;;;19.13;4.30;;;;;;;;;;5089902;28;20285;-75
2021/05/15 09:24:31;;;;;;;21.33;4.73;;;;;;;;;;5090001;28;20186;-75
2021/05/15 09:27:00;;;;;;;23.20;5.20;;;;;;;;;;5089066;28;20222;-75
2021/05/15 09:29:27;;;;;;;22.27;4.82;;;;;;;;;;5090117;28;20301;-76
2021/05/15 09:31:54;;;;;;;21.20;4.25;;;;;;;;;;5090744;28;20229;-75
2021/05/15 09:34:21;;;;;;;18.45;4.55;;;;;;;;;;5088629;28;20254;-75
2021/05/15 09:36:49;;;;;;;21.13;4.65;;;;;;;;;;5089446;28;20195;-76
2021/05/15 09:39:17;;;;;;;25.77;5.30;;;;;;;;;;5090276;28;20247;-75
2021/05/15 09:41:45;;;;;;;19.60;5.13;;;;;;;;;;5089509;28;20631;-75
2021/05/15 09:44:13;;;;;;;22.90;5.07;;;;;;;;;;5084690;28;20317;-75
2021/05/15 09:46:41;;;;;;;19.57;4.73;;;;;;;;;;5093073;28;20286;-75
2021/05/15 09:49:08;;;;;;;18.10;4.63;;;;;;;;;;5092538;28;20262;-75
2021/05/15 09:51:35;;;;;;;20.58;4.78;;;;;;;;;;5076574;28;20282;-75
2021/05/15 09:54:11;;;;;;;17.00;4.10;;;;;;;;;;5089194;28;20666;-75
2021/05/15 09:56:38;;;;;;;19.63;4.25;;;;;;;;;;5087521;28;20194;-75
2021/05/15 09:59:04;;;;;;;17.80;3.88;;;;;;;;;;5084155;28;20302;-75
2021/05/15 10:01:40;;;;;;;21.27;4.40;;;;;;;;;;5087969;28;20191;-75
2021/05/15 10:04:06;;;;;;;19.77;4.57;;;;;;;;;;5089860;28;20228;-75
2021/05/15 10:06:33;;;;;;;14.55;3.67;;;;;;;;;;5084806;28;20734;-75
2021/05/15 10:09:00;;;;;;;15.00;3.75;;;;;;;;;;5084830;28;20317;-75
2021/05/15 10:11:27;;;;;;;14.48;4.10;;;;;;;;;;5089664;28;20323;-75
2021/05/15 10:13:54;;;;;;;18.10;3.80;;;;;;;;;;5091628;28;20541;-75
2021/05/15 10:16:20;;;;;;;19.13;7.60;;;;;;;;;;5090870;28;20279;-75
2021/05/15 10:18:49;;;;;;;16.38;4.30;;;;;;;;;;5077764;28;20374;-74
2021/05/15 10:21:15;;;;;;;22.70;4.00;;;;;;;;;;5094256;28;20199;-75
2021/05/15 10:23:43;;;;;;;18.45;4.22;;;;;;;;;;5088360;28;20286;-75
2021/05/15 10:26:11;;;;;;;19.92;4.40;;;;;;;;;;5092203;28;20250;-75
2021/05/15 10:28:39;;;;;;;19.42;4.30;;;;;;;;;;5084699;28;20280;-75
2021/05/15 10:31:07;;;;;;;21.70;5.05;;;;;;;;;;5088997;28;20249;-75
2021/05/15 10:33:34;;;;;;;17.88;4.35;;;;;;;;;;5080171;28;20215;-75
2021/05/15 10:36:04;;;;;;;20.67;4.20;;;;;;;;;;5093261;28;20218;-75
2021/05/15 10:38:31;;;;;;;18.20;4.30;;;;;;;;;;5090365;28;20192;-75
2021/05/15 10:41:08;;;;;;;18.37;4.50;;;;;;;;;;5088967;28;20202;-75
2021/05/15 10:43:36;;;;;;;19.53;4.97;;;;;;;;;;5090242;28;20434;-74
2021/05/15 10:46:13;;;;;;;20.90;4.97;;;;;;;;;;5092187;28;20278;-74
2021/05/15 10:48:40;;;;;;;22.77;4.97;;;;;;;;;;5089422;28;20289;-74
2021/05/15 10:51:10;;;;;;;18.67;4.67;;;;;;;;;;5090012;28;20210;-74
2021/05/15 10:53:36;;;;;;;18.07;4.10;;;;;;;;;;5091407;28;20256;-74
2021/05/15 10:56:12;;;;;;;19.43;4.70;;;;;;;;;;5092578;28;20230;-74
2021/05/15 10:58:39;;;;;;;17.13;4.60;;;;;;;;;;5092549;28;20209;-74
2021/05/15 11:01:10;;;;;;;16.92;4.25;;;;;;;;;;5093156;28;20716;-74
2021/05/15 11:03:36;;;;;;;17.92;4.93;;;;;;;;;;5093135;28;20281;-74
2021/05/15 11:06:13;;;;;;;17.90;3.90;;;;;;;;;;5093573;28;20214;-75
2021/05/15 11:08:41;;;;;;;18.70;4.45;;;;;;;;;;5093276;28;20261;-75
2021/05/15 11:11:09;;;;;;;17.08;4.35;;;;;;;;;;5092985;28;20202;-74
2021/05/15 11:13:45;;;;;;;14.32;3.83;;;;;;;;;;5092677;28;20305;-75
2021/05/15 11:16:13;;;;;;;14.25;4.03;;;;;;;;;;5093343;28;20372;-74
2021/05/15 11:18:40;;;;;;;13.43;3.75;;;;;;;;;;5092699;28;20660;-75
2021/05/15 11:21:07;;;;;;;13.57;4.00;;;;;;;;;;5086948;28;20737;-75
2021/05/15 11:23:36;;;;;;;13.98;4.05;;;;;;;;;;5091591;28;20205;-75
2021/05/15 11:26:05;;;;;;;13.73;4.25;;;;;;;;;;5080975;28;20732;-75
2021/05/15 11:28:32;;;;;;;20.05;4.30;;;;;;;;;;5091410;28;20597;-75
2021/05/15 11:30:59;;;;;;;17.55;4.43;;;;;;;;;;5090353;28;20202;-74
2021/05/15 11:33:26;;;;;;;14.43;3.95;;;;;;;;;;5094767;28;20292;-75
2021/05/15 11:35:54;;;;;;;13.73;4.07;;;;;;;;;;5094910;28;20210;-75
2021/05/15 11:38:22;;;;;;;15.02;3.55;;;;;;;;;;5095395;28;20222;-75
2021/05/15 11:40:53;;;;;;;12.80;3.30;;;;;;;;;;5090174;28;20194;-75
2021/05/15 11:43:21;;;;;;;17.67;3.50;;;;;;;;;;5095345;28;20198;-75
2021/05/15 11:45:50;;;;;;;12.82;3.45;;;;;;;;;;5094802;28;20199;-75
2021/05/15 11:48:20;;;;;;;13.75;3.53;;;;;;;;;;5100858;28;20277;-75
2021/05/15 11:50:57;;;;;;;15.13;3.08;;;;;;;;;;5087104;28;20879;-75
2021/05/15 11:53:24;;;;;;;11.77;3.15;;;;;;;;;;5081797;28;20205;-75
2021/05/15 11:55:51;;;;;;;11.25;2.63;;;;;;;;;;5080211;28;20285;-75
2021/05/15 11:58:19;;;;;;;10.88;2.63;;;;;;;;;;5079849;28;20201;-74
2021/05/15 12:00:46;;;;;;;11.60;2.83;;;;;;;;;;5090167;28;20199;-74
2021/05/15 12:03:13;;;;;;;8.75;2.60;;;;;;;;;;5090484;28;20286;-74
2021/05/15 12:05:40;;;;;;;10.15;2.35;;;;;;;;;;5092652;28;20213;-74
2021/05/15 12:08:10;;;;;;;8.18;2.13;;;;;;;;;;5091550;28;20329;-73
2021/05/15 12:10:37;;;;;;;10.90;2.50;;;;;;;;;;5092855;28;20285;-74
2021/05/15 12:13:04;;;;;;;9.98;2.80;;;;;;;;;;5091536;28;20697;-74
2021/05/15 12:15:32;;;;;;;10.13;3.20;;;;;;;;;;5092312;28;20313;-74
2021/05/15 12:17:59;;;;;;;9.25;2.60;;;;;;;;;;5092448;28;20290;-74
2021/05/15 12:20:30;;;;;;;9.85;3.00;;;;;;;;;;5092156;28;20234;-74
2021/05/15 12:23:07;;;;;;;10.82;3.15;;;;;;;;;;5092295;28;20237;-74
2021/05/15 12:25:33;;;;;;;11.73;3.00;;;;;;;;;;5091132;28;20190;-74
2021/05/15 12:28:00;;;;;;;9.75;2.95;;;;;;;;;;5091629;28;20285;-74
2021/05/15 12:30:27;;;;;;;9.75;2.97;;;;;;;;;;5091501;28;20191;-74
2021/05/15 12:33:02;;;;;;;11.38;3.28;;;;;;;;;;5091892;28;20575;-74
2021/05/15 12:35:28;;;;;;;10.30;2.83;;;;;;;;;;5090675;28;20263;-73
2021/05/15 12:37:56;;;;;;;12.20;3.05;;;;;;;;;;5091038;28;20206;-73
2021/05/15 12:40:26;;;;;;;15.90;3.03;;;;;;;;;;5090776;28;20198;-74
2021/05/15 12:42:53;;;;;;;9.75;2.90;;;;;;;;;;5091927;28;20372;-74
2021/05/15 12:45:20;;;;;;;40.83;14.15;;;;;;;;;;5091445;28;20188;-74
2021/05/15 12:47:47;;;;;;;13.40;3.03;;;;;;;;;;5090164;28;20226;-73
2021/05/15 12:50:20;;;;;;;16.25;2.67;;;;;;;;;;5090924;28;20195;-73
2021/05/15 12:52:47;;;;;;;18.50;8.15;;;;;;;;;;5089480;28;20190;-72
2021/05/15 12:55:17;;;;;;;15.65;3.20;;;;;;;;;;5099216;28;20289;-72
2021/05/15 12:57:53;;;;;;;12.10;3.17;;;;;;;;;;5085066;28;20324;-72
2021/05/15 13:00:21;;;;;;;17.77;4.30;;;;;;;;;;5090793;28;20255;-71
2021/05/15 13:02:57;;;;;;;20.80;5.18;;;;;;;;;;5090016;28;20214;-72
2021/05/15 13:05:28;;;;;;;24.50;8.35;;;;;;;;;;5090498;28;20202;-72
2021/05/15 13:08:03;;;;;;;15.30;3.45;;;;;;;;;;5088816;28;20285;-72
2021/05/15 13:10:30;;;;;;;12.73;2.20;;;;;;;;;;5085764;28;20284;-72
2021/05/15 13:12:56;;;;;;;9.88;2.42;;;19.10;99.90;;;;;;5084511;28;20447;-71
2021/05/15 13:15:23;;;;;;;12.43;2.67;;;19.10;99.90;;;;;;5083070;28;20318;-71
2021/05/15 13:17:49;;;;;;;9.63;2.15;;;19.30;99.90;;;;;;5088257;28;20237;-74
2021/05/15 13:20:16;;;;;;;14.25;3.20;;;19.10;99.90;;;;;;5084464;28;20757;-74
2021/05/15 13:22:43;;;;;;;8.80;2.58;;;18.50;99.90;;;;;;5090372;28;20684;-73
2021/05/15 13:25:10;;;;;;;10.38;2.83;;;18.40;99.90;;;;;;5089745;28;20693;-74
2021/05/15 13:27:38;;;;;;;11.75;3.03;;;17.70;99.90;;;;;;5090331;28;20305;-74
2021/05/15 13:30:05;;;;;;;12.73;2.50;;;17.60;99.90;;;;;;5089694;28;20206;-73
2021/05/15 13:32:31;;;;;;;9.88;2.55;;;17.60;99.90;;;;;;5089232;28;20248;-72
2021/05/15 13:34:58;;;;;;;12.93;2.88;;;17.50;99.90;;;;;;5088300;28;20257;-76
2021/05/15 13:37:24;;;;;;;11.45;2.67;;;17.10;99.90;;;;;;5088641;28;20209;-73
2021/05/15 13:39:51;;;;;;;10.00;2.38;;;17.10;99.90;;;;;;5081722;28;20202;-74
2021/05/15 13:42:18;;;;;;;12.40;2.60;;;16.70;99.90;;;;;;5086323;28;20295;-74
2021/05/15 13:44:44;;;;;;;7.85;2.00;;;16.50;99.90;;;;;;5085385;28;20278;-74
2021/05/15 13:47:12;;;;;;;8.83;2.50;;;16.90;99.90;;;;;;5092570;28;20194;-75
2021/05/15 13:49:38;;;;;;;7.30;2.00;;;18.20;99.90;;;;;;5092177;28;20198;-74
2021/05/15 13:52:05;;;;;;;11.48;2.53;;;;;;;;;;5090995;28;20234;-75
2021/05/15 13:54:32;;;;;;;9.90;2.43;;;;;;;;;;5087252;28;20717;-74
2021/05/15 13:57:00;;;;;;;10.93;2.25;;;;;;;;;;5093443;28;20293;-74
2021/05/15 13:59:26;;;;;;;7.83;2.00;;;;;;;;;;5092256;28;20297;-75
2021/05/15 14:01:53;;;;;;;9.60;2.30;;;;;;;;;;5094358;28;20245;-74
2021/05/15 14:04:20;;;;;;;9.15;2.40;;;;;;;;;;5092403;28;20596;-75
2021/05/15 14:06:46;;;;;;;12.35;2.90;;;;;;;;;;5091835;28;20199;-75
2021/05/15 14:09:13;;;;;;;9.07;2.42;;;;;;;;;;5094060;28;20261;-75
2021/05/15 14:11:40;;;;;;;11.20;2.80;;;;;;;;;;5094262;28;20198;-75
2021/05/15 14:14:07;;;;;;;8.65;2.33;;;;;;;;;;5092937;28;20313;-74
2021/05/15 14:16:34;;;;;;;11.52;2.40;;;;;;;;;;5091804;28;20642;-75
2021/05/15 14:19:01;;;;;;;10.85;2.40;;;;;;;;;;5093020;28;20654;-75
2021/05/15 14:21:28;;;;;;;12.13;2.67;;;;;;;;;;5093103;28;20281;-74
2021/05/15 14:23:54;;;;;;;11.97;2.60;;;;;;;;;;5093613;28;20221;-74
2021/05/15 14:26:22;;;;;;;7.90;2.20;;;;;;;;;;5093092;28;20254;-75
2021/05/15 14:28:49;;;;;;;8.67;2.37;;;;;;;;;;5093195;28;20194;-74
2021/05/15 14:31:16;;;;;;;8.43;2.30;;;;;;;;;;5091022;28;20690;-75